OITK  Khoy  Airport

Khoy, Iran

Add Bookmark
Status IATA
Operational KHY
Latitude Longitude
38° 25' 39" N 44° 58' 24" E
38.427502 44.973598
Local (DST + 5) UTC (GMT + 4)
Mar 6, 2015 01:57 Mar 5, 2015 22:27
Sunrise-Sunset Local UTC
Begin Civil Twilight 06:27 02:57
Sunrise 06:53 03:23
Sunset 06:29 14:59
End Civil Twilight 06:55 15:25

Current Weather

METAR Observed MVFR
OITK 051100Z 03014KT 6000 -SN FEW030CB SCT035 OVC090 02/M03 Q1019 Thu, Mar 5, 2015 @ 11:00 UTC
(11 Hours, 27 Minutes ago)
Marginal Visual Flight Rules
Wind Visibility Clouds Conditions
030° at 14 knots (26 kph) 6000 meters
  • Few at 3,000' AGL
  • Scattered at 3,500' AGL
  • Overcast at 9,000' AGL
  • Light Snow
Temperatures Readings Precipitation
Current Temp 2°C (36°F)
Dewpoint -3°C (27°F)
Humidity 70%
Altimeter 30.09"Hg
Sea Level Pressure 1019mb
Field Elevation 3631.89'
None Recorded

Additional weather within a 92.6km radius of OITK

Map ICAO Location
OITR 84.8km S (174°)

24 Hour Weather History

Loading
-

24 Hour Weather Graphs

Loading
-

CheckWX.com is intended as a tool to help pilots better visualize weather data. It is not intended as a substitute for an official weather briefing obtained from a Flight Service Station. CheckWX.com does not meet the FAA requirements for an official pre-flight weather briefing. Therefore, it's important that pilots still call and obtain an official FSS pre-flight weather briefing.